sensor_id;sensor_type;location;lat;lon;timestamp;temperature;humidity
1355;DHT22;671;48.972;9.276;2023-11-19T00:01:01;9.30;99.90
1355;DHT22;671;48.972;9.276;2023-11-19T00:03:28;9.30;99.90
1355;DHT22;671;48.972;9.276;2023-11-19T00:05:54;9.30;99.90
1355;DHT22;671;48.972;9.276;2023-11-19T00:08:22;9.30;99.90
1355;DHT22;671;48.972;9.276;2023-11-19T00:10:51;9.40;99.90
1355;DHT22;671;48.972;9.276;2023-11-19T00:13:17;9.40;99.90
1355;DHT22;671;48.972;9.276;2023-11-19T00:15:44;9.40;99.90
1355;DHT22;671;48.972;9.276;2023-11-19T00:18:11;9.40;99.90
1355;DHT22;671;48.972;9.276;2023-11-19T00:20:37;9.40;99.90
1355;DHT22;671;48.972;9.276;2023-11-19T00:23:04;9.50;99.90
1355;DHT22;671;48.972;9.276;2023-11-19T00:25:30;9.50;99.90
1355;DHT22;671;48.972;9.276;2023-11-19T00:27:57;9.50;99.90
1355;DHT22;671;48.972;9.276;2023-11-19T00:30:23;9.50;99.90
1355;DHT22;671;48.972;9.276;2023-11-19T00:32:50;9.60;99.90
1355;DHT22;671;48.972;9.276;2023-11-19T00:35:16;9.60;99.90
1355;DHT22;671;48.972;9.276;2023-11-19T00:37:43;9.60;99.90
1355;DHT22;671;48.972;9.276;2023-11-19T00:40:11;9.60;99.90
1355;DHT22;671;48.972;9.276;2023-11-19T00:42:38;9.60;99.90
1355;DHT22;671;48.972;9.276;2023-11-19T00:45:05;9.60;99.90
1355;DHT22;671;48.972;9.276;2023-11-19T00:47:35;9.60;99.90
1355;DHT22;671;48.972;9.276;2023-11-19T00:50:03;9.70;99.90
1355;DHT22;671;48.972;9.276;2023-11-19T00:52:29;9.70;99.90
1355;DHT22;671;48.972;9.276;2023-11-19T00:54:56;9.70;99.90
1355;DHT22;671;48.972;9.276;2023-11-19T00:57:23;9.70;99.90
1355;DHT22;671;48.972;9.276;2023-11-19T00:59:50;9.70;99.90
1355;DHT22;671;48.972;9.276;2023-11-19T01:02:16;9.70;99.90
1355;DHT22;671;48.972;9.276;2023-11-19T01:04:43;9.70;99.90
1355;DHT22;671;48.972;9.276;2023-11-19T01:07:10;9.70;99.90
1355;DHT22;671;48.972;9.276;2023-11-19T01:09:42;9.70;99.90
1355;DHT22;671;48.972;9.276;2023-11-19T01:12:08;9.70;99.90
1355;DHT22;671;48.972;9.276;2023-11-19T01:14:36;9.70;99.90
1355;DHT22;671;48.972;9.276;2023-11-19T01:17:03;9.70;99.90
1355;DHT22;671;48.972;9.276;2023-11-19T01:19:31;9.80;99.90
1355;DHT22;671;48.972;9.276;2023-11-19T01:21:57;9.80;99.90
1355;DHT22;671;48.972;9.276;2023-11-19T01:24:24;9.80;99.90
1355;DHT22;671;48.972;9.276;2023-11-19T01:26:50;9.80;99.90
1355;DHT22;671;48.972;9.276;2023-11-19T01:29:17;9.80;99.90
1355;DHT22;671;48.972;9.276;2023-11-19T01:31:46;9.90;99.90
1355;DHT22;671;48.972;9.276;2023-11-19T01:34:17;9.80;99.90
1355;DHT22;671;48.972;9.276;2023-11-19T01:36:44;9.90;99.90
1355;DHT22;671;48.972;9.276;2023-11-19T01:39:12;9.90;99.90
1355;DHT22;671;48.972;9.276;2023-11-19T01:41:42;9.90;99.90
1355;DHT22;671;48.972;9.276;2023-11-19T01:44:09;9.90;99.90
1355;DHT22;671;48.972;9.276;2023-11-19T01:46:35;10.00;99.90
1355;DHT22;671;48.972;9.276;2023-11-19T01:49:03;10.00;99.90
1355;DHT22;671;48.972;9.276;2023-11-19T01:51:31;10.00;99.90
1355;DHT22;671;48.972;9.276;2023-11-19T01:53:58;10.00;99.90
1355;DHT22;671;48.972;9.276;2023-11-19T01:56:25;10.00;99.90
1355;DHT22;671;48.972;9.276;2023-11-19T01:58:54;10.10;99.90
1355;DHT22;671;48.972;9.276;2023-11-19T02:01:21;10.10;99.90
1355;DHT22;671;48.972;9.276;2023-11-19T02:03:48;10.10;99.90
1355;DHT22;671;48.972;9.276;2023-11-19T02:06:15;10.20;99.90
1355;DHT22;671;48.972;9.276;2023-11-19T02:08:42;10.20;99.90
1355;DHT22;671;48.972;9.276;2023-11-19T02:11:09;10.20;99.90
1355;DHT22;671;48.972;9.276;2023-11-19T02:13:37;10.20;99.90
1355;DHT22;671;48.972;9.276;2023-11-19T02:16:04;10.20;99.90
1355;DHT22;671;48.972;9.276;2023-11-19T02:18:31;10.20;99.90
1355;DHT22;671;48.972;9.276;2023-11-19T02:20:58;10.30;99.90
1355;DHT22;671;48.972;9.276;2023-11-19T02:23:27;10.30;99.90
1355;DHT22;671;48.972;9.276;2023-11-19T02:26:10;10.40;99.90
1355;DHT22;671;48.972;9.276;2023-11-19T02:28:41;10.40;99.90
1355;DHT22;671;48.972;9.276;2023-11-19T02:31:09;10.40;99.90
1355;DHT22;671;48.972;9.276;2023-11-19T02:33:37;10.40;99.90
1355;DHT22;671;48.972;9.276;2023-11-19T02:36:05;10.40;99.90
1355;DHT22;671;48.972;9.276;2023-11-19T02:38:33;10.40;99.90
1355;DHT22;671;48.972;9.276;2023-11-19T02:41:03;10.40;99.90
1355;DHT22;671;48.972;9.276;2023-11-19T02:43:36;10.50;99.90
1355;DHT22;671;48.972;9.276;2023-11-19T02:46:06;10.50;99.90
1355;DHT22;671;48.972;9.276;2023-11-19T02:48:33;10.50;99.90
1355;DHT22;671;48.972;9.276;2023-11-19T02:51:05;10.50;99.90
1355;DHT22;671;48.972;9.276;2023-11-19T02:53:35;10.50;99.90
1355;DHT22;671;48.972;9.276;2023-11-19T02:56:04;10.50;99.90
1355;DHT22;671;48.972;9.276;2023-11-19T02:59:06;10.60;99.90
1355;DHT22;671;48.972;9.276;2023-11-19T03:01:41;10.60;99.90
1355;DHT22;671;48.972;9.276;2023-11-19T03:04:10;10.60;99.90
1355;DHT22;671;48.972;9.276;2023-11-19T03:06:38;10.60;99.90
1355;DHT22;671;48.972;9.276;2023-11-19T03:09:04;10.60;99.90
1355;DHT22;671;48.972;9.276;2023-11-19T03:11:36;10.60;99.90
1355;DHT22;671;48.972;9.276;2023-11-19T03:14:03;10.60;99.90
1355;DHT22;671;48.972;9.276;2023-11-19T03:16:29;10.60;99.90
1355;DHT22;671;48.972;9.276;2023-11-19T03:18:56;10.70;99.90
1355;DHT22;671;48.972;9.276;2023-11-19T03:21:29;10.70;99.90
1355;DHT22;671;48.972;9.276;2023-11-19T03:23:55;10.70;99.90
1355;DHT22;671;48.972;9.276;2023-11-19T03:26:22;10.70;99.90
1355;DHT22;671;48.972;9.276;2023-11-19T03:28:48;10.70;99.90
1355;DHT22;671;48.972;9.276;2023-11-19T03:31:14;10.70;99.90
1355;DHT22;671;48.972;9.276;2023-11-19T03:33:41;10.70;99.90
1355;DHT22;671;48.972;9.276;2023-11-19T03:36:08;10.70;99.90
1355;DHT22;671;48.972;9.276;2023-11-19T03:38:35;10.70;99.90
1355;DHT22;671;48.972;9.276;2023-11-19T03:41:10;10.70;99.90
1355;DHT22;671;48.972;9.276;2023-11-19T03:43:38;10.70;99.90
1355;DHT22;671;48.972;9.276;2023-11-19T03:46:04;10.70;99.90
1355;DHT22;671;48.972;9.276;2023-11-19T03:48:31;10.70;99.90
1355;DHT22;671;48.972;9.276;2023-11-19T03:50:58;10.70;99.90
1355;DHT22;671;48.972;9.276;2023-11-19T03:53:24;10.70;99.90
1355;DHT22;671;48.972;9.276;2023-11-19T03:55:51;10.70;99.90
1355;DHT22;671;48.972;9.276;2023-11-19T03:58:18;10.70;99.90
1355;DHT22;671;48.972;9.276;2023-11-19T04:00:44;10.60;99.90
1355;DHT22;671;48.972;9.276;2023-11-19T04:03:11;10.60;99.90
1355;DHT22;671;48.972;9.276;2023-11-19T04:05:37;10.60;99.90
1355;DHT22;671;48.972;9.276;2023-11-19T04:08:04;10.60;99.90
1355;DHT22;671;48.972;9.276;2023-11-19T04:10:31;10.60;99.90
1355;DHT22;671;48.972;9.276;2023-11-19T04:12:58;10.60;99.90
1355;DHT22;671;48.972;9.276;2023-11-19T04:15:24;10.60;99.90
1355;DHT22;671;48.972;9.276;2023-11-19T04:17:51;10.70;99.90
1355;DHT22;671;48.972;9.276;2023-11-19T04:20:17;10.70;99.90
1355;DHT22;671;48.972;9.276;2023-11-19T04:22:44;10.70;99.90
1355;DHT22;671;48.972;9.276;2023-11-19T04:25:10;10.70;99.90
1355;DHT22;671;48.972;9.276;2023-11-19T04:27:37;10.70;99.90
1355;DHT22;671;48.972;9.276;2023-11-19T04:30:04;10.70;99.90
1355;DHT22;671;48.972;9.276;2023-11-19T04:32:31;10.70;99.90
1355;DHT22;671;48.972;9.276;2023-11-19T04:34:58;10.80;99.90
1355;DHT22;671;48.972;9.276;2023-11-19T04:37:24;10.80;99.90
1355;DHT22;671;48.972;9.276;2023-11-19T04:39:51;10.80;99.90
1355;DHT22;671;48.972;9.276;2023-11-19T04:42:17;10.80;99.90
1355;DHT22;671;48.972;9.276;2023-11-19T04:44:44;10.90;99.90
1355;DHT22;671;48.972;9.276;2023-11-19T04:47:11;10.90;99.90
1355;DHT22;671;48.972;9.276;2023-11-19T04:49:40;10.90;99.90
1355;DHT22;671;48.972;9.276;2023-11-19T04:52:09;10.90;99.90
1355;DHT22;671;48.972;9.276;2023-11-19T04:54:35;10.90;99.90
1355;DHT22;671;48.972;9.276;2023-11-19T04:57:02;10.90;99.90
1355;DHT22;671;48.972;9.276;2023-11-19T04:59:29;10.90;99.90
1355;DHT22;671;48.972;9.276;2023-11-19T05:01:55;11.00;99.90
1355;DHT22;671;48.972;9.276;2023-11-19T05:04:22;11.00;99.90
1355;DHT22;671;48.972;9.276;2023-11-19T05:06:48;11.00;99.90
1355;DHT22;671;48.972;9.276;2023-11-19T05:09:15;11.00;99.90
1355;DHT22;671;48.972;9.276;2023-11-19T05:11:41;11.10;99.90
1355;DHT22;671;48.972;9.276;2023-11-19T05:14:07;11.00;99.90
1355;DHT22;671;48.972;9.276;2023-11-19T05:16:35;11.10;99.90
1355;DHT22;671;48.972;9.276;2023-11-19T05:19:01;11.10;99.90
1355;DHT22;671;48.972;9.276;2023-11-19T05:21:28;11.20;99.90
1355;DHT22;671;48.972;9.276;2023-11-19T05:23:55;11.20;99.90
1355;DHT22;671;48.972;9.276;2023-11-19T05:26:24;11.20;99.90
1355;DHT22;671;48.972;9.276;2023-11-19T05:28:50;11.30;99.90
1355;DHT22;671;48.972;9.276;2023-11-19T05:31:18;11.30;99.90
1355;DHT22;671;48.972;9.276;2023-11-19T05:33:44;11.30;99.90
1355;DHT22;671;48.972;9.276;2023-11-19T05:36:11;11.30;99.90
1355;DHT22;671;48.972;9.276;2023-11-19T05:38:39;11.30;99.90
1355;DHT22;671;48.972;9.276;2023-11-19T05:41:05;11.30;99.90
1355;DHT22;671;48.972;9.276;2023-11-19T05:43:32;11.30;99.90
1355;DHT22;671;48.972;9.276;2023-11-19T05:45:59;11.30;99.90
1355;DHT22;671;48.972;9.276;2023-11-19T05:48:26;11.30;99.90
1355;DHT22;671;48.972;9.276;2023-11-19T05:50:53;11.30;99.90
1355;DHT22;671;48.972;9.276;2023-11-19T05:53:21;11.40;99.90
1355;DHT22;671;48.972;9.276;2023-11-19T05:55:47;11.40;99.90
1355;DHT22;671;48.972;9.276;2023-11-19T05:58:26;11.40;99.90
1355;DHT22;671;48.972;9.276;2023-11-19T06:00:55;11.50;99.90
1355;DHT22;671;48.972;9.276;2023-11-19T06:03:22;11.50;99.90
1355;DHT22;671;48.972;9.276;2023-11-19T06:05:49;11.50;99.90
1355;DHT22;671;48.972;9.276;2023-11-19T06:08:16;11.50;99.90
1355;DHT22;671;48.972;9.276;2023-11-19T06:10:44;11.60;99.90
1355;DHT22;671;48.972;9.276;2023-11-19T06:13:15;11.60;99.90
1355;DHT22;671;48.972;9.276;2023-11-19T06:15:42;11.60;99.90
1355;DHT22;671;48.972;9.276;2023-11-19T06:18:09;11.60;99.90
1355;DHT22;671;48.972;9.276;2023-11-19T06:20:37;11.60;99.90
1355;DHT22;671;48.972;9.276;2023-11-19T06:23:04;11.60;99.90
1355;DHT22;671;48.972;9.276;2023-11-19T06:25:31;11.60;99.90
1355;DHT22;671;48.972;9.276;2023-11-19T06:27:57;11.60;99.90
1355;DHT22;671;48.972;9.276;2023-11-19T06:30:24;11.70;99.90
1355;DHT22;671;48.972;9.276;2023-11-19T06:32:51;11.70;99.90
1355;DHT22;671;48.972;9.276;2023-11-19T06:35:17;11.70;99.90
1355;DHT22;671;48.972;9.276;2023-11-19T06:37:44;11.70;99.90
1355;DHT22;671;48.972;9.276;2023-11-19T06:40:11;11.70;99.90
1355;DHT22;671;48.972;9.276;2023-11-19T06:42:38;11.70;99.90
1355;DHT22;671;48.972;9.276;2023-11-19T06:45:06;11.80;99.90
1355;DHT22;671;48.972;9.276;2023-11-19T06:47:32;11.80;99.90
1355;DHT22;671;48.972;9.276;2023-11-19T06:49:59;11.70;99.90
1355;DHT22;671;48.972;9.276;2023-11-19T06:52:26;11.70;99.90
1355;DHT22;671;48.972;9.276;2023-11-19T06:54:52;11.70;99.90
1355;DHT22;671;48.972;9.276;2023-11-19T06:57:19;11.80;99.90
1355;DHT22;671;48.972;9.276;2023-11-19T06:59:46;11.80;99.90
1355;DHT22;671;48.972;9.276;2023-11-19T07:02:13;11.80;99.90
1355;DHT22;671;48.972;9.276;2023-11-19T07:04:40;11.80;99.90
1355;DHT22;671;48.972;9.276;2023-11-19T07:07:07;11.80;99.90
1355;DHT22;671;48.972;9.276;2023-11-19T07:09:33;11.80;99.90
1355;DHT22;671;48.972;9.276;2023-11-19T07:12:00;11.80;99.90
1355;DHT22;671;48.972;9.276;2023-11-19T07:14:28;11.80;99.90
1355;DHT22;671;48.972;9.276;2023-11-19T07:16:55;11.80;99.90
1355;DHT22;671;48.972;9.276;2023-11-19T07:19:22;11.90;99.90
1355;DHT22;671;48.972;9.276;2023-11-19T07:21:48;11.90;99.90
1355;DHT22;671;48.972;9.276;2023-11-19T07:24:15;11.90;99.90
1355;DHT22;671;48.972;9.276;2023-11-19T07:26:43;12.00;99.90
1355;DHT22;671;48.972;9.276;2023-11-19T07:29:10;12.00;99.90
1355;DHT22;671;48.972;9.276;2023-11-19T07:31:37;12.00;99.90
1355;DHT22;671;48.972;9.276;2023-11-19T07:34:03;12.00;99.90
1355;DHT22;671;48.972;9.276;2023-11-19T07:36:31;12.10;99.90
1355;DHT22;671;48.972;9.276;2023-11-19T07:38:58;12.10;99.90
1355;DHT22;671;48.972;9.276;2023-11-19T07:41:25;12.10;99.90
1355;DHT22;671;48.972;9.276;2023-11-19T07:43:52;12.10;99.90
1355;DHT22;671;48.972;9.276;2023-11-19T07:46:19;12.10;99.90
1355;DHT22;671;48.972;9.276;2023-11-19T07:48:46;12.10;99.90
1355;DHT22;671;48.972;9.276;2023-11-19T07:51:15;12.10;99.90
1355;DHT22;671;48.972;9.276;2023-11-19T07:53:42;12.10;99.90
1355;DHT22;671;48.972;9.276;2023-11-19T07:56:09;12.20;99.90
1355;DHT22;671;48.972;9.276;2023-11-19T07:58:36;12.20;99.90
1355;DHT22;671;48.972;9.276;2023-11-19T08:01:03;12.10;99.90
1355;DHT22;671;48.972;9.276;2023-11-19T08:03:29;12.20;99.90
1355;DHT22;671;48.972;9.276;2023-11-19T08:05:56;12.20;99.90
1355;DHT22;671;48.972;9.276;2023-11-19T08:08:25;12.20;99.90
1355;DHT22;671;48.972;9.276;2023-11-19T08:10:52;12.20;99.90
1355;DHT22;671;48.972;9.276;2023-11-19T08:13:20;12.30;99.90
1355;DHT22;671;48.972;9.276;2023-11-19T08:15:46;12.30;99.90
1355;DHT22;671;48.972;9.276;2023-11-19T08:18:13;12.30;99.90
1355;DHT22;671;48.972;9.276;2023-11-19T08:20:39;12.40;99.90
1355;DHT22;671;48.972;9.276;2023-11-19T08:23:07;12.40;99.90
1355;DHT22;671;48.972;9.276;2023-11-19T08:25:34;12.40;99.90
1355;DHT22;671;48.972;9.276;2023-11-19T08:28:01;12.50;99.90
1355;DHT22;671;48.972;9.276;2023-11-19T08:30:28;12.50;99.90
1355;DHT22;671;48.972;9.276;2023-11-19T08:32:55;12.60;99.90
1355;DHT22;671;48.972;9.276;2023-11-19T08:35:21;12.70;99.90
1355;DHT22;671;48.972;9.276;2023-11-19T08:37:48;12.70;99.90
1355;DHT22;671;48.972;9.276;2023-11-19T08:40:14;12.80;99.90
1355;DHT22;671;48.972;9.276;2023-11-19T08:42:41;12.80;99.90
1355;DHT22;671;48.972;9.276;2023-11-19T08:45:08;12.80;99.90
1355;DHT22;671;48.972;9.276;2023-11-19T08:47:37;12.80;99.90
1355;DHT22;671;48.972;9.276;2023-11-19T08:50:04;12.80;99.90
1355;DHT22;671;48.972;9.276;2023-11-19T08:52:31;12.90;99.90
1355;DHT22;671;48.972;9.276;2023-11-19T08:54:57;12.90;99.90
1355;DHT22;671;48.972;9.276;2023-11-19T08:57:23;12.90;99.90
1355;DHT22;671;48.972;9.276;2023-11-19T08:59:50;13.00;99.90
1355;DHT22;671;48.972;9.276;2023-11-19T09:02:17;13.00;99.90
1355;DHT22;671;48.972;9.276;2023-11-19T09:04:44;13.10;99.90
1355;DHT22;671;48.972;9.276;2023-11-19T09:07:11;13.20;99.90
1355;DHT22;671;48.972;9.276;2023-11-19T09:09:37;13.40;99.90
1355;DHT22;671;48.972;9.276;2023-11-19T09:12:04;13.40;99.90
1355;DHT22;671;48.972;9.276;2023-11-19T09:14:31;13.40;99.90
1355;DHT22;671;48.972;9.276;2023-11-19T09:16:57;13.40;99.90
1355;DHT22;671;48.972;9.276;2023-11-19T09:19:24;13.40;99.90
1355;DHT22;671;48.972;9.276;2023-11-19T09:21:53;13.50;99.90
1355;DHT22;671;48.972;9.276;2023-11-19T09:24:20;13.50;99.90
1355;DHT22;671;48.972;9.276;2023-11-19T09:26:46;13.60;99.90
1355;DHT22;671;48.972;9.276;2023-11-19T09:29:13;13.70;99.90
1355;DHT22;671;48.972;9.276;2023-11-19T09:31:40;13.80;99.90
1355;DHT22;671;48.972;9.276;2023-11-19T09:34:07;13.90;99.90
1355;DHT22;671;48.972;9.276;2023-11-19T09:36:34;13.90;99.90
1355;DHT22;671;48.972;9.276;2023-11-19T09:39:01;14.00;99.90
1355;DHT22;671;48.972;9.276;2023-11-19T09:41:30;14.00;99.90
1355;DHT22;671;48.972;9.276;2023-11-19T09:43:57;14.00;99.90
1355;DHT22;671;48.972;9.276;2023-11-19T09:46:23;13.90;99.90
1355;DHT22;671;48.972;9.276;2023-11-19T09:48:53;13.90;99.90
1355;DHT22;671;48.972;9.276;2023-11-19T09:51:22;13.90;99.90
1355;DHT22;671;48.972;9.276;2023-11-19T09:53:49;13.90;99.90
1355;DHT22;671;48.972;9.276;2023-11-19T09:56:16;14.00;99.90
1355;DHT22;671;48.972;9.276;2023-11-19T09:58:45;14.20;99.90
1355;DHT22;671;48.972;9.276;2023-11-19T10:01:11;14.30;99.90
1355;DHT22;671;48.972;9.276;2023-11-19T10:03:39;14.50;99.90
1355;DHT22;671;48.972;9.276;2023-11-19T10:06:07;14.50;99.90
1355;DHT22;671;48.972;9.276;2023-11-19T10:08:39;14.60;99.90
1355;DHT22;671;48.972;9.276;2023-11-19T10:11:06;14.70;99.90
1355;DHT22;671;48.972;9.276;2023-11-19T10:13:36;14.70;99.90
1355;DHT22;671;48.972;9.276;2023-11-19T10:16:12;14.80;99.90
1355;DHT22;671;48.972;9.276;2023-11-19T10:18:46;14.90;99.90
1355;DHT22;671;48.972;9.276;2023-11-19T10:21:13;14.90;99.90
1355;DHT22;671;48.972;9.276;2023-11-19T10:26:20;15.10;99.90
1355;DHT22;671;48.972;9.276;2023-11-19T10:28:47;15.20;99.90
1355;DHT22;671;48.972;9.276;2023-11-19T10:31:17;15.20;99.90
1355;DHT22;671;48.972;9.276;2023-11-19T10:33:45;15.20;99.90
1355;DHT22;671;48.972;9.276;2023-11-19T10:36:12;15.10;99.90
1355;DHT22;671;48.972;9.276;2023-11-19T10:38:39;15.10;99.90
1355;DHT22;671;48.972;9.276;2023-11-19T10:41:07;15.20;99.90
1355;DHT22;671;48.972;9.276;2023-11-19T10:43:43;15.30;99.90
1355;DHT22;671;48.972;9.276;2023-11-19T10:46:14;15.50;99.90
1355;DHT22;671;48.972;9.276;2023-11-19T10:48:40;15.60;99.90
1355;DHT22;671;48.972;9.276;2023-11-19T10:51:07;15.70;99.90
1355;DHT22;671;48.972;9.276;2023-11-19T10:53:36;15.90;99.90
1355;DHT22;671;48.972;9.276;2023-11-19T10:56:05;16.00;99.90
1355;DHT22;671;48.972;9.276;2023-11-19T10:58:33;16.10;99.90
1355;DHT22;671;48.972;9.276;2023-11-19T11:01:02;16.30;99.90
1355;DHT22;671;48.972;9.276;2023-11-19T11:03:40;16.40;99.90
1355;DHT22;671;48.972;9.276;2023-11-19T11:06:08;16.30;99.90
1355;DHT22;671;48.972;9.276;2023-11-19T11:08:37;16.20;99.90
1355;DHT22;671;48.972;9.276;2023-11-19T11:11:05;16.30;99.90
1355;DHT22;671;48.972;9.276;2023-11-19T11:13:33;16.40;99.90
1355;DHT22;671;48.972;9.276;2023-11-19T11:16:00;16.40;99.90
1355;DHT22;671;48.972;9.276;2023-11-19T11:18:28;16.40;99.90
1355;DHT22;671;48.972;9.276;2023-11-19T11:21:17;16.50;99.90
1355;DHT22;671;48.972;9.276;2023-11-19T11:34:50;16.60;99.90
1355;DHT22;671;48.972;9.276;2023-11-19T11:39:52;16.60;99.90
1355;DHT22;671;48.972;9.276;2023-11-19T11:45:08;16.50;99.90
1355;DHT22;671;48.972;9.276;2023-11-19T11:50:24;16.40;99.90
1355;DHT22;671;48.972;9.276;2023-11-19T11:55:34;16.30;99.90
1355;DHT22;671;48.972;9.276;2023-11-19T11:58:03;16.30;99.90
1355;DHT22;671;48.972;9.276;2023-11-19T12:03:00;16.10;99.90
1355;DHT22;671;48.972;9.276;2023-11-19T12:05:28;16.00;99.90
1355;DHT22;671;48.972;9.276;2023-11-19T12:08:03;16.00;99.90
1355;DHT22;671;48.972;9.276;2023-11-19T12:10:31;15.90;99.90
1355;DHT22;671;48.972;9.276;2023-11-19T12:12:59;15.80;99.90
1355;DHT22;671;48.972;9.276;2023-11-19T12:15:26;15.80;99.90
1355;DHT22;671;48.972;9.276;2023-11-19T12:17:54;15.70;99.90
1355;DHT22;671;48.972;9.276;2023-11-19T12:20:25;15.70;99.90
1355;DHT22;671;48.972;9.276;2023-11-19T12:22:53;15.60;99.90
1355;DHT22;671;48.972;9.276;2023-11-19T12:25:20;15.60;99.90
1355;DHT22;671;48.972;9.276;2023-11-19T12:27:48;15.70;99.90
1355;DHT22;671;48.972;9.276;2023-11-19T12:30:24;15.50;99.90
1355;DHT22;671;48.972;9.276;2023-11-19T12:32:52;15.50;99.90
1355;DHT22;671;48.972;9.276;2023-11-19T12:35:23;15.40;99.90
1355;DHT22;671;48.972;9.276;2023-11-19T12:37:50;15.40;99.90
1355;DHT22;671;48.972;9.276;2023-11-19T12:40:22;15.40;99.90
1355;DHT22;671;48.972;9.276;2023-11-19T12:42:49;15.30;99.90
1355;DHT22;671;48.972;9.276;2023-11-19T12:45:16;15.40;99.90
1355;DHT22;671;48.972;9.276;2023-11-19T12:47:43;15.30;99.90
1355;DHT22;671;48.972;9.276;2023-11-19T12:50:10;15.40;99.90
1355;DHT22;671;48.972;9.276;2023-11-19T12:52:37;15.50;99.90
1355;DHT22;671;48.972;9.276;2023-11-19T12:55:05;15.60;99.90
1355;DHT22;671;48.972;9.276;2023-11-19T12:57:40;15.70;99.90
1355;DHT22;671;48.972;9.276;2023-11-19T13:00:17;15.70;99.90
1355;DHT22;671;48.972;9.276;2023-11-19T13:02:47;15.80;99.90
1355;DHT22;671;48.972;9.276;2023-11-19T13:05:28;15.90;99.90
1355;DHT22;671;48.972;9.276;2023-11-19T13:08:07;15.90;99.90
1355;DHT22;671;48.972;9.276;2023-11-19T13:13:15;15.90;99.90
1355;DHT22;671;48.972;9.276;2023-11-19T13:15:41;15.90;99.90
1355;DHT22;671;48.972;9.276;2023-11-19T13:18:09;15.80;99.90
1355;DHT22;671;48.972;9.276;2023-11-19T13:20:36;15.70;99.90
1355;DHT22;671;48.972;9.276;2023-11-19T13:23:04;15.70;99.90
1355;DHT22;671;48.972;9.276;2023-11-19T13:25:31;15.80;99.90
1355;DHT22;671;48.972;9.276;2023-11-19T13:27:58;15.80;99.90
1355;DHT22;671;48.972;9.276;2023-11-19T13:30:26;15.90;99.90
1355;DHT22;671;48.972;9.276;2023-11-19T13:32:52;15.90;99.90
1355;DHT22;671;48.972;9.276;2023-11-19T13:35:21;15.90;99.90
1355;DHT22;671;48.972;9.276;2023-11-19T13:37:48;15.80;99.90
1355;DHT22;671;48.972;9.276;2023-11-19T13:40:15;15.80;99.90
1355;DHT22;671;48.972;9.276;2023-11-19T13:42:42;15.80;99.90
1355;DHT22;671;48.972;9.276;2023-11-19T13:45:12;15.80;99.90
1355;DHT22;671;48.972;9.276;2023-11-19T13:47:41;15.80;99.90
1355;DHT22;671;48.972;9.276;2023-11-19T13:50:15;15.80;99.90
1355;DHT22;671;48.972;9.276;2023-11-19T13:52:43;15.80;99.90
1355;DHT22;671;48.972;9.276;2023-11-19T13:55:12;15.80;99.90
1355;DHT22;671;48.972;9.276;2023-11-19T13:57:39;15.80;99.90
1355;DHT22;671;48.972;9.276;2023-11-19T14:00:10;15.70;99.90
1355;DHT22;671;48.972;9.276;2023-11-19T14:02:43;15.70;99.90
1355;DHT22;671;48.972;9.276;2023-11-19T14:05:09;15.70;99.90
1355;DHT22;671;48.972;9.276;2023-11-19T14:07:39;15.60;99.90
1355;DHT22;671;48.972;9.276;2023-11-19T14:10:07;15.70;99.90
1355;DHT22;671;48.972;9.276;2023-11-19T14:12:35;15.60;99.90
1355;DHT22;671;48.972;9.276;2023-11-19T14:15:04;15.60;99.90
1355;DHT22;671;48.972;9.276;2023-11-19T14:17:33;15.50;99.90
1355;DHT22;671;48.972;9.276;2023-11-19T14:20:01;15.60;99.90
1355;DHT22;671;48.972;9.276;2023-11-19T14:22:27;15.50;99.90
1355;DHT22;671;48.972;9.276;2023-11-19T14:24:53;15.50;99.90
1355;DHT22;671;48.972;9.276;2023-11-19T14:27:21;15.50;99.90
1355;DHT22;671;48.972;9.276;2023-11-19T14:29:48;15.50;99.90
1355;DHT22;671;48.972;9.276;2023-11-19T14:32:15;15.40;99.90
1355;DHT22;671;48.972;9.276;2023-11-19T14:34:41;15.30;99.90
1355;DHT22;671;48.972;9.276;2023-11-19T14:37:08;15.40;99.90
1355;DHT22;671;48.972;9.276;2023-11-19T14:39:35;15.30;99.90
1355;DHT22;671;48.972;9.276;2023-11-19T14:42:01;15.20;99.90
1355;DHT22;671;48.972;9.276;2023-11-19T14:44:30;15.20;99.90
1355;DHT22;671;48.972;9.276;2023-11-19T14:46:57;15.10;99.90
1355;DHT22;671;48.972;9.276;2023-11-19T14:49:23;15.10;99.90
1355;DHT22;671;48.972;9.276;2023-11-19T14:51:51;14.90;99.90
1355;DHT22;671;48.972;9.276;2023-11-19T14:54:17;14.90;99.90
1355;DHT22;671;48.972;9.276;2023-11-19T14:56:44;14.80;99.90
1355;DHT22;671;48.972;9.276;2023-11-19T14:59:11;14.70;99.90
1355;DHT22;671;48.972;9.276;2023-11-19T15:01:37;14.60;99.90
1355;DHT22;671;48.972;9.276;2023-11-19T15:04:04;14.60;99.90
1355;DHT22;671;48.972;9.276;2023-11-19T15:06:30;14.50;99.90
1355;DHT22;671;48.972;9.276;2023-11-19T15:08:58;14.50;99.90
1355;DHT22;671;48.972;9.276;2023-11-19T15:11:24;14.50;99.90
1355;DHT22;671;48.972;9.276;2023-11-19T15:13:51;14.40;99.90
1355;DHT22;671;48.972;9.276;2023-11-19T15:16:17;14.40;99.90
1355;DHT22;671;48.972;9.276;2023-11-19T15:18:50;14.30;99.90
1355;DHT22;671;48.972;9.276;2023-11-19T15:21:18;14.20;99.90
1355;DHT22;671;48.972;9.276;2023-11-19T15:23:44;14.20;99.90
1355;DHT22;671;48.972;9.276;2023-11-19T15:26:11;14.10;99.90
1355;DHT22;671;48.972;9.276;2023-11-19T15:28:37;14.00;99.90
1355;DHT22;671;48.972;9.276;2023-11-19T15:31:04;13.90;99.90
1355;DHT22;671;48.972;9.276;2023-11-19T15:33:31;13.80;99.90
1355;DHT22;671;48.972;9.276;2023-11-19T15:35:57;13.80;99.90
1355;DHT22;671;48.972;9.276;2023-11-19T15:38:26;13.70;99.90
1355;DHT22;671;48.972;9.276;2023-11-19T15:40:53;13.60;99.90
1355;DHT22;671;48.972;9.276;2023-11-19T15:43:19;13.50;99.90
1355;DHT22;671;48.972;9.276;2023-11-19T15:45:46;13.50;99.90
1355;DHT22;671;48.972;9.276;2023-11-19T15:48:12;13.40;99.90
1355;DHT22;671;48.972;9.276;2023-11-19T15:50:40;13.30;99.90
1355;DHT22;671;48.972;9.276;2023-11-19T15:53:06;13.20;99.90
1355;DHT22;671;48.972;9.276;2023-11-19T15:55:33;13.20;99.90
1355;DHT22;671;48.972;9.276;2023-11-19T15:57:59;13.10;99.90
1355;DHT22;671;48.972;9.276;2023-11-19T16:00:26;13.10;99.90
1355;DHT22;671;48.972;9.276;2023-11-19T16:02:53;13.00;99.90
1355;DHT22;671;48.972;9.276;2023-11-19T16:05:20;13.00;99.90
1355;DHT22;671;48.972;9.276;2023-11-19T16:07:46;12.90;99.90
1355;DHT22;671;48.972;9.276;2023-11-19T16:10:13;12.90;99.90
1355;DHT22;671;48.972;9.276;2023-11-19T16:12:39;12.70;99.90
1355;DHT22;671;48.972;9.276;2023-11-19T16:15:09;12.70;99.90
1355;DHT22;671;48.972;9.276;2023-11-19T16:17:36;12.70;99.90
1355;DHT22;671;48.972;9.276;2023-11-19T16:20:03;12.60;99.90
1355;DHT22;671;48.972;9.276;2023-11-19T16:22:33;12.50;99.90
1355;DHT22;671;48.972;9.276;2023-11-19T16:25:00;12.50;99.90
1355;DHT22;671;48.972;9.276;2023-11-19T16:27:26;12.50;99.90
1355;DHT22;671;48.972;9.276;2023-11-19T16:29:53;12.40;99.90
1355;DHT22;671;48.972;9.276;2023-11-19T16:32:19;12.40;99.90
1355;DHT22;671;48.972;9.276;2023-11-19T16:34:46;12.40;99.90
1355;DHT22;671;48.972;9.276;2023-11-19T16:37:17;12.40;99.90
1355;DHT22;671;48.972;9.276;2023-11-19T16:39:44;12.30;99.90
1355;DHT22;671;48.972;9.276;2023-11-19T16:42:10;12.30;99.90
1355;DHT22;671;48.972;9.276;2023-11-19T16:44:37;12.30;99.90
1355;DHT22;671;48.972;9.276;2023-11-19T16:47:03;12.20;99.90
1355;DHT22;671;48.972;9.276;2023-11-19T16:49:32;12.20;99.90
1355;DHT22;671;48.972;9.276;2023-11-19T16:51:59;12.10;99.90